Time;durP1;ratioP1;P1;durP2;ratioP2;P2;SDS_P1;SDS_P2;PMS_P1;PMS_P2;Temp;Humidity;BMP_temperature;BMP_pressure;BME280_temperature;BME280_humidity;BME280_pressure;Samples;Min_cycle;Max_cycle;Signal;HPM_P1;HPM_P2
2022/11/22 00:02:21;;;;;;;0.00;0.00;;;;;;;;;;5046621;28;20017;-79
2022/11/22 00:04:47;;;;;;;0.00;0.00;;;;;;;;;;5049442;28;20474;-79
2022/11/22 00:07:14;;;;;;;0.00;0.00;;;;;;;;;;5050759;28;20284;-79
2022/11/22 00:09:40;;;;;;;0.00;0.00;;;;;;;;;;5048361;28;20056;-80
2022/11/22 00:12:06;;;;;;;0.00;0.00;;;;;;;;;;5048594;28;20021;-80
2022/11/22 00:14:33;;;;;;;0.00;0.00;;;;;;;;;;5048616;28;20033;-80
2022/11/22 00:16:59;;;;;;;0.00;0.00;;;;;;;;;;5048226;28;20033;-79
2022/11/22 00:19:25;;;;;;;0.00;0.00;;;;;;;;;;5049912;28;20111;-79
2022/11/22 00:21:52;;;;;;;0.00;0.00;;;;;;;;;;5050600;28;20027;-79
2022/11/22 00:24:18;;;;;;;0.00;0.00;;;;;;;;;;5045977;28;20021;-79
2022/11/22 00:26:44;;;;;;;0.00;0.00;;;;;;;;;;5052907;28;20111;-79
2022/11/22 00:29:12;;;;;;;0.00;0.00;;;;;;;;;;5052933;28;20029;-79
2022/11/22 00:31:39;;;;;;;0.00;0.00;;;;;;;;;;5050002;28;20021;-79
2022/11/22 00:34:05;;;;;;;0.00;0.00;;;;;;;;;;5052399;28;20059;-79
2022/11/22 00:36:31;;;;;;;0.00;0.00;;;;;;;;;;5053540;28;20107;-79
2022/11/22 00:38:58;;;;;;;0.00;0.00;;;;;;;;;;5052439;28;20499;-78
2022/11/22 00:41:24;;;;;;;0.00;0.00;;;;;;;;;;5053166;28;20025;-79
2022/11/22 00:43:50;;;;;;;0.00;0.00;;;;;;;;;;5053198;28;20377;-79
2022/11/22 00:46:17;;;;;;;0.00;0.00;;;;;;;;;;5053073;28;20029;-78
2022/11/22 00:48:43;;;;;;;0.00;0.00;;;;;;;;;;5052635;28;20025;-80
2022/11/22 00:51:09;;;;;;;0.00;0.00;;;;;;;;;;5052250;28;20376;-79
2022/11/22 00:53:36;;;;;;;0.00;0.00;;;;;;;;;;5052593;28;20033;-78
2022/11/22 00:56:02;;;;;;;0.00;0.00;;;;;;;;;;5053099;28;20025;-78
2022/11/22 00:58:28;;;;;;;0.00;0.00;;;;;;;;;;5052271;28;20355;-79
2022/11/22 01:00:54;;;;;;;0.00;0.00;;;;;;;;;;5051683;28;20100;-78
2022/11/22 01:03:21;;;;;;;0.00;0.00;;;;;;;;;;5055517;28;20096;-79
2022/11/22 01:05:47;;;;;;;0.00;0.00;;;;;;;;;;5056733;28;20495;-79
2022/11/22 01:08:13;;;;;;;0.00;0.00;;;;;;;;;;5054876;28;20039;-78
2022/11/22 01:10:40;;;;;;;0.00;0.00;;;;;;;;;;5055237;28;20045;-78
2022/11/22 01:13:06;;;;;;;0.00;0.00;;;;;;;;;;5055624;28;20025;-78
2022/11/22 01:15:32;;;;;;;0.00;0.00;;;;;;;;;;5055436;28;20834;-78
2022/11/22 01:17:59;;;;;;;0.00;0.00;;;;;;;;;;5055012;28;20044;-79
2022/11/22 01:20:25;;;;;;;0.00;0.00;;;;;;;;;;5053826;28;20017;-81
2022/11/22 01:22:51;;;;;;;0.00;0.00;;;;;;;;;;5054471;28;20025;-79
2022/11/22 01:25:18;;;;;;;0.00;0.00;;;;;;;;;;5054769;28;20025;-78
2022/11/22 01:27:44;;;;;;;0.00;0.00;;;;;;;;;;5055113;28;20031;-79
2022/11/22 01:30:11;;;;;;;0.00;0.00;;;;;;;;;;5055626;28;20158;-79
2022/11/22 01:32:37;;;;;;;0.00;0.00;;;;;;;;;;5055073;28;20020;-80
2022/11/22 01:35:04;;;;;;;0.00;0.00;;;;;;;;;;5055794;28;20092;-79
2022/11/22 01:37:30;;;;;;;0.00;0.00;;;;;;;;;;5054684;28;20025;-79
2022/11/22 01:39:56;;;;;;;0.00;0.00;;;;;;;;;;5054486;28;20025;-80
2022/11/22 01:42:23;;;;;;;0.00;0.00;;;;;;;;;;5055937;28;20454;-79
2022/11/22 01:44:50;;;;;;;0.00;0.00;;;;;;;;;;5054736;28;20024;-79
2022/11/22 01:47:20;;;;;;;0.00;0.00;;;;;;;;;;5056792;28;20111;-78
2022/11/22 01:49:47;;;;;;;0.00;0.00;;;;;;;;;;5054467;28;20029;-79
2022/11/22 01:52:18;;;;;;;0.00;0.00;;;;;;;;;;5054743;28;20036;-80
2022/11/22 01:54:46;;;;;;;0.00;0.00;;;;;;;;;;5049240;28;20548;-78
2022/11/22 01:57:16;;;;;;;0.00;0.00;;;;;;;;;;5053313;28;20056;-80
2022/11/22 01:59:46;;;;;;;0.00;0.00;;;;;;;;;;5049053;28;20059;-80
2022/11/22 02:02:13;;;;;;;0.00;0.00;;;;;;;;;;5051206;28;20029;-79
2022/11/22 02:04:40;;;;;;;0.00;0.00;;;;;;;;;;5048387;28;20025;-78
2022/11/22 02:07:16;;;;;;;0.00;0.00;;;;;;;;;;5052099;28;20378;-79
2022/11/22 02:09:44;;;;;;;0.00;0.00;;;;;;;;;;5051513;28;20045;-79
2022/11/22 02:12:10;;;;;;;0.00;0.00;;;;;;;;;;5051297;28;20044;-80
2022/11/22 02:14:38;;;;;;;0.00;0.00;;;;;;;;;;5051880;28;20039;-79
2022/11/22 02:17:04;;;;;;;0.00;0.00;;;;;;;;;;5050907;28;20074;-78
2022/11/22 02:19:30;;;;;;;0.00;0.00;;;;;;;;;;5053075;28;20025;-80
2022/11/22 02:21:59;;;;;;;0.00;0.00;;;;;;;;;;5053825;28;20374;-80
2022/11/22 02:24:35;;;;;;;0.00;0.00;;;;;;;;;;5054696;28;20086;-80
2022/11/22 02:27:02;;;;;;;0.00;0.00;;;;;;;;;;5053541;28;20033;-79
2022/11/22 02:29:30;;;;;;;0.00;0.00;;;;;;;;;;5053520;28;20025;-79
2022/11/22 02:31:56;;;;;;;0.00;0.00;;;;;;;;;;5052567;28;20024;-80
2022/11/22 02:34:23;;;;;;;0.00;0.00;;;;;;;;;;5049948;28;20036;-78
2022/11/22 02:36:50;;;;;;;0.00;0.00;;;;;;;;;;5052028;28;20143;-79
2022/11/22 02:39:19;;;;;;;0.00;0.00;;;;;;;;;;5049511;28;20113;-81
2022/11/22 02:41:45;;;;;;;0.00;0.00;;;;;;;;;;5051724;28;20033;-82
2022/11/22 02:44:13;;;;;;;0.00;0.00;;;;;;;;;;5047158;28;20047;-81
2022/11/22 02:46:46;;;;;;;0.00;0.00;;;;;;;;;;5048465;28;20364;-81
2022/11/22 02:49:12;;;;;;;0.00;0.00;;;;;;;;;;5044204;28;20028;-81
2022/11/22 02:51:39;;;;;;;0.00;0.00;;;;;;;;;;5047619;28;20107;-81
2022/11/22 02:54:05;;;;;;;0.00;0.00;;;;;;;;;;5044938;28;20445;-81
2022/11/22 02:56:31;;;;;;;0.00;0.00;;;;;;;;;;5043820;28;20466;-81
2022/11/22 02:58:58;;;;;;;0.00;0.00;;;;;;;;;;5044270;28;20044;-82
2022/11/22 03:01:24;;;;;;;0.00;0.00;;;;;;;;;;5049597;28;20044;-81
2022/11/22 03:03:50;;;;;;;0.00;0.00;;;;;;;;;;5045054;28;20029;-81
2022/11/22 03:06:16;;;;;;;0.00;0.00;;;;;;;;;;5028179;28;20039;-81
2022/11/22 03:08:43;;;;;;;0.00;0.00;;;;;;;;;;5041195;28;20036;-81
2022/11/22 03:11:09;;;;;;;0.00;0.00;;;;;;;;;;5036193;28;20107;-81
2022/11/22 03:13:35;;;;;;;0.00;0.00;;;;;;;;;;5040309;28;20036;-82
2022/11/22 03:16:02;;;;;;;0.00;0.00;;;;;;;;;;5022541;28;20021;-82
2022/11/22 03:18:28;;;;;;;0.00;0.00;;;;;;;;;;5041856;28;20025;-81
2022/11/22 03:20:54;;;;;;;0.00;0.00;;;;;;;;;;5043047;28;20025;-80
2022/11/22 03:23:21;;;;;;;0.00;0.00;;;;;;;;;;5045226;28;20025;-80
2022/11/22 03:25:47;;;;;;;0.00;0.00;;;;;;;;;;5042321;28;20104;-82
2022/11/22 03:28:13;;;;;;;0.00;0.00;;;;;;;;;;5041253;28;20102;-81
2022/11/22 03:30:40;;;;;;;0.00;0.00;;;;;;;;;;5043032;28;20021;-80
2022/11/22 03:33:07;;;;;;;0.00;0.00;;;;;;;;;;5049965;28;20033;-81
2022/11/22 03:35:33;;;;;;;0.00;0.00;;;;;;;;;;5051357;28;20044;-80
2022/11/22 03:37:59;;;;;;;0.00;0.00;;;;;;;;;;5047234;28;20845;-80
2022/11/22 03:40:26;;;;;;;0.00;0.00;;;;;;;;;;5045826;28;20025;-81
2022/11/22 03:42:52;;;;;;;0.00;0.00;;;;;;;;;;5046732;28;20021;-81
2022/11/22 03:45:18;;;;;;;0.00;0.00;;;;;;;;;;5047370;28;20116;-81
2022/11/22 03:47:45;;;;;;;0.00;0.00;;;;;;;;;;5031229;28;20029;-82
2022/11/22 03:50:11;;;;;;;0.00;0.00;;;;;;;;;;5047852;28;20100;-81
2022/11/22 03:52:37;;;;;;;0.00;0.00;;;;;;;;;;5046202;28;20029;-81
2022/11/22 03:55:04;;;;;;;0.00;0.00;;;;;;;;;;5046599;28;20025;-81
2022/11/22 03:57:30;;;;;;;0.00;0.00;;;;;;;;;;5031053;28;20048;-81
2022/11/22 03:59:56;;;;;;;0.00;0.00;;;;;;;;;;5047519;28;20497;-80
2022/11/22 04:02:23;;;;;;;0.00;0.00;;;;;;;;;;5045089;28;20144;-81
2022/11/22 04:04:49;;;;;;;0.00;0.00;;;;;;;;;;5043932;28;20025;-80
2022/11/22 04:07:15;;;;;;;0.00;0.00;;;;;;;;;;5045540;28;20025;-81
2022/11/22 04:09:42;;;;;;;0.00;0.00;;;;;;;;;;5042305;28;20076;-81
2022/11/22 04:12:08;;;;;;;0.00;0.00;;;;;;;;;;5040859;28;20409;-81
2022/11/22 04:17:39;;;;;;;0.00;0.00;;;;;;;;;;5043205;28;20048;-81
2022/11/22 04:23:04;;;;;;;0.00;0.00;;;;;;;;;;5046045;28;20402;-81
2022/11/22 04:25:31;;;;;;;0.00;0.00;;;;;;;;;;5045509;28;20028;-80
2022/11/22 04:27:58;;;;;;;0.00;0.00;;;;;;;;;;5045644;28;20036;-80
2022/11/22 04:32:44;;;;;;;0.00;0.00;;;;;;;;;;5046779;28;20017;-81
2022/11/22 04:33:12;;;;;;;0.00;0.00;;;;;;;;;;5036088;28;20029;-82
2022/11/22 04:35:39;;;;;;;0.00;0.00;;;;;;;;;;5030008;28;21457;-82
2022/11/22 04:38:05;;;;;;;0.00;0.00;;;;;;;;;;5046083;28;20543;-81
2022/11/22 04:40:32;;;;;;;0.00;0.00;;;;;;;;;;5049432;28;20064;-80
2022/11/22 04:45:44;;;;;;;0.00;0.00;;;;;;;;;;5046717;28;20059;-81
2022/11/22 04:48:11;;;;;;;0.00;0.00;;;;;;;;;;5051081;28;20051;-81
2022/11/22 04:53:23;;;;;;;0.00;0.00;;;;;;;;;;5054690;28;20071;-81
2022/11/22 04:55:49;;;;;;;0.00;0.00;;;;;;;;;;5048860;28;20044;-80
2022/11/22 04:58:16;;;;;;;0.00;0.00;;;;;;;;;;5046886;28;20036;-83
2022/11/22 05:00:42;;;;;;;0.00;0.00;;;;;;;;;;5051016;28;20116;-80
2022/11/22 05:03:09;;;;;;;0.00;0.00;;;;;;;;;;5052008;28;20434;-80
2022/11/22 05:05:36;;;;;;;0.00;0.00;;;;;;;;;;5049180;28;20028;-82
2022/11/22 05:08:03;;;;;;;0.00;0.00;;;;;;;;;;5031560;28;20411;-80
2022/11/22 05:10:55;;;;;;;0.00;0.00;;;;;;;;;;5029058;28;20044;-81
2022/11/22 05:13:19;;;;;;;0.00;0.00;;;;;;;;;;5043240;28;20029;-80
2022/11/22 05:15:46;;;;;;;0.00;0.00;;;;;;;;;;5044588;28;20414;-81
2022/11/22 05:18:12;;;;;;;0.00;0.00;;;;;;;;;;5051886;28;20029;-81
2022/11/22 05:20:39;;;;;;;0.00;0.00;;;;;;;;;;5049240;28;20028;-81
2022/11/22 05:25:50;;;;;;;0.00;0.00;;;;;;;;;;5047430;28;20052;-82
2022/11/22 05:28:16;;;;;;;0.00;0.00;;;;;;;;;;5048351;28;20028;-83
2022/11/22 05:30:43;;;;;;;0.00;0.00;;;;;;;;;;5049425;28;20029;-81
2022/11/22 05:33:09;;;;;;;0.00;0.00;;;;;;;;;;5028268;28;20403;-83
2022/11/22 05:35:39;;;;;;;0.00;0.00;;;;;;;;;;5046501;28;20037;-83
2022/11/22 05:38:05;;;;;;;0.00;0.00;;;;;;;;;;5029776;28;20021;-83
2022/11/22 05:40:34;;;;;;;0.00;0.00;;;;;;;;;;5051969;28;20048;-82
2022/11/22 05:43:00;;;;;;;0.00;0.00;;;;;;;;;;5045335;28;20343;-82
2022/11/22 05:45:27;;;;;;;0.00;0.00;;;;;;;;;;5026054;28;20028;-85
2022/11/22 05:47:53;;;;;;;0.00;0.00;;;;;;;;;;5049699;28;20021;-83
2022/11/22 05:50:19;;;;;;;0.00;0.00;;;;;;;;;;5050881;28;20017;-83
2022/11/22 05:52:46;;;;;;;0.00;0.00;;;;;;;;;;5051040;28;20029;-84
2022/11/22 05:55:12;;;;;;;0.00;0.00;;;;;;;;;;5052035;28;20029;-83
2022/11/22 05:57:39;;;;;;;0.00;0.00;;;;;;;;;;5031239;28;20039;-84
2022/11/22 06:00:05;;;;;;;0.00;0.00;;;;;;;;;;5048043;28;20036;-83
2022/11/22 06:02:32;;;;;;;0.00;0.00;;;;;;;;;;5045963;28;20032;-86
2022/11/22 06:04:58;;;;;;;0.00;0.00;;;;;;;;;;5050991;28;20052;-86
2022/11/22 06:07:24;;;;;;;0.00;0.00;;;;;;;;;;5049709;28;20100;-86
2022/11/22 06:09:53;;;;;;;0.00;0.00;;;;;;;;;;5053953;28;20045;-85
2022/11/22 06:12:20;;;;;;;0.00;0.00;;;;;;;;;;5048483;28;20115;-84
2022/11/22 06:14:46;;;;;;;0.00;0.00;;;;;;;;;;5030845;28;20100;-84
2022/11/22 06:17:12;;;;;;;0.00;0.00;;;;;;;;;;5047708;28;20115;-84
2022/11/22 06:19:39;;;;;;;0.00;0.00;;;;;;;;;;5042390;28;20021;-83
2022/11/22 06:22:05;;;;;;;0.00;0.00;;;;;;;;;;5042034;28;20060;-82
2022/11/22 06:24:31;;;;;;;0.00;0.00;;;;;;;;;;5046148;28;20037;-82
2022/11/22 06:26:57;;;;;;;0.00;0.00;;;;;;;;;;5041050;28;20078;-83
2022/11/22 06:29:24;;;;;;;0.00;0.00;;;;;;;;;;5047356;28;20143;-82
2022/11/22 06:31:50;;;;;;;0.00;0.00;;;;;;;;;;5044782;28;20487;-81
2022/11/22 06:34:16;;;;;;;0.00;0.00;;;;;;;;;;5034773;28;20108;-83
2022/11/22 06:36:43;;;;;;;0.00;0.00;;;;;;;;;;5044099;28;20032;-83
2022/11/22 06:39:09;;;;;;;0.00;0.00;;;;;;;;;;5046722;28;20025;-83
2022/11/22 06:41:37;;;;;;;0.00;0.00;;;;;;;;;;5042212;28;20035;-83
2022/11/22 06:44:04;;;;;;;0.00;0.00;;;;;;;;;;5046402;28;20024;-82
2022/11/22 06:46:31;;;;;;;0.00;0.00;;;;;;;;;;5027216;28;20390;-82
2022/11/22 06:49:00;;;;;;;0.00;0.00;;;;;;;;;;5048062;28;20373;-81
2022/11/22 06:51:28;;;;;;;0.00;0.00;;;;;;;;;;5048311;28;20078;-81
2022/11/22 06:53:55;;;;;;;0.00;0.00;;;;;;;;;;5045637;28;20492;-81
2022/11/22 06:56:23;;;;;;;0.00;0.00;;;;;;;;;;5046885;28;20112;-81
2022/11/22 06:58:50;;;;;;;0.00;0.00;;;;;;;;;;5045393;28;20027;-82
2022/11/22 07:01:24;;;;;;;0.00;0.00;;;;;;;;;;5030366;28;21398;-82
2022/11/22 07:03:56;;;;;;;0.00;0.00;;;;;;;;;;5043489;28;20098;-84
2022/11/22 07:06:23;;;;;;;0.00;0.00;;;;;;;;;;5046263;28;20103;-86
2022/11/22 07:08:49;;;;;;;0.00;0.00;;;;;;;;;;5045215;28;20473;-85
2022/11/22 07:11:18;;;;;;;0.00;0.00;;;;;;;;;;5040997;28;20108;-85
2022/11/22 07:13:44;;;;;;;0.00;0.00;;;;;;;;;;5046417;28;20028;-85
2022/11/22 07:16:12;;;;;;;0.00;0.00;;;;;;;;;;5046514;28;20481;-85
2022/11/22 07:18:41;;;;;;;0.00;0.00;;;;;;;;;;5049088;28;20032;-85
2022/11/22 07:21:09;;;;;;;0.00;0.00;;;;;;;;;;5044677;28;20462;-84
2022/11/22 07:23:35;;;;;;;0.00;0.00;;;;;;;;;;5041812;28;20386;-85
2022/11/22 07:26:01;;;;;;;0.00;0.00;;;;;;;;;;5050949;28;20029;-85
2022/11/22 07:28:28;;;;;;;0.00;0.00;;;;;;;;;;5045737;28;20082;-83
2022/11/22 07:30:59;;;;;;;0.00;0.00;;;;;;;;;;5040165;28;20039;-86
2022/11/22 07:33:25;;;;;;;0.00;0.00;;;;;;;;;;5027939;28;20033;-85
2022/11/22 07:35:52;;;;;;;0.00;0.00;;;;;;;;;;5027521;28;20059;-86
2022/11/22 07:38:18;;;;;;;0.00;0.00;;;;;;;;;;5040321;28;20025;-86
2022/11/22 07:40:44;;;;;;;0.00;0.00;;;;;;;;;;5046224;28;20044;-85
2022/11/22 07:43:11;;;;;;;0.00;0.00;;;;;;;;;;5048469;28;20323;-87
2022/11/22 07:45:37;;;;;;;0.00;0.00;;;;;;;;;;5046520;28;20028;-86
2022/11/22 07:48:03;;;;;;;0.00;0.00;;;;;;;;;;5047467;28;20466;-85
2022/11/22 07:50:30;;;;;;;0.00;0.00;;;;;;;;;;5046681;28;20112;-87
2022/11/22 07:53:00;;;;;;;0.00;0.00;;;;;;;;;;5045041;28;20474;-86
2022/11/22 07:55:26;;;;;;;0.00;0.00;;;;;;;;;;5046195;28;20482;-86
2022/11/22 07:57:53;;;;;;;0.00;0.00;;;;;;;;;;5046408;28;20144;-87
2022/11/22 08:00:20;;;;;;;0.00;0.00;;;;;;;;;;5041551;28;20033;-87
2022/11/22 08:02:46;;;;;;;0.00;0.00;;;;;;;;;;5046042;28;20082;-87
2022/11/22 08:05:13;;;;;;;0.00;0.00;;;;;;;;;;5049190;28;20026;-87
2022/11/22 08:07:39;;;;;;;0.00;0.00;;;;;;;;;;5040254;28;20076;-87
2022/11/22 08:10:06;;;;;;;0.00;0.00;;;;;;;;;;5052879;28;20060;-84
2022/11/22 08:12:32;;;;;;;0.00;0.00;;;;;;;;;;5051234;28;20413;-87
2022/11/22 08:14:58;;;;;;;0.00;0.00;;;;;;;;;;5029111;28;20045;-87
2022/11/22 08:17:25;;;;;;;0.00;0.00;;;;;;;;;;5032454;28;20029;-87
2022/11/22 08:19:52;;;;;;;0.00;0.00;;;;;;;;;;5051269;28;20040;-86
2022/11/22 08:22:18;;;;;;;0.00;0.00;;;;;;;;;;5027247;28;20021;-84
2022/11/22 08:24:46;;;;;;;0.00;0.00;;;;;;;;;;5039340;28;20037;-86
2022/11/22 08:27:12;;;;;;;0.00;0.00;;;;;;;;;;5045730;28;20381;-84
2022/11/22 08:29:38;;;;;;;0.00;0.00;;;;;;;;;;5048439;28;20037;-85
2022/11/22 08:32:05;;;;;;;0.00;0.00;;;;;;;;;;5045350;28;20032;-85
2022/11/22 08:34:31;;;;;;;0.00;0.00;;;;;;;;;;5042075;28;20043;-86
2022/11/22 08:36:57;;;;;;;0.00;0.00;;;;;;;;;;5041530;28;20025;-86
2022/11/22 08:39:24;;;;;;;0.00;0.00;;;;;;;;;;5043382;28;20462;-86
2022/11/22 08:41:50;;;;;;;0.00;0.00;;;;;;;;;;5020635;28;20597;-86
2022/11/22 08:44:16;;;;;;;0.00;0.00;;;;;;;;;;5041227;28;20021;-86
2022/11/22 08:46:48;;;;;;;0.00;0.00;;;;;;;;;;5045249;28;20025;-86
2022/11/22 08:49:17;;;;;;;0.00;0.00;;;;;;;;;;5050277;28;20029;-86
2022/11/22 08:55:11;;;;;;;0.00;0.00;;;;;;;;;;4958197;28;20256;-86
2022/11/22 09:00:40;;;;;;;0.00;0.00;;;;;;;;;;5044681;28;20035;-87
2022/11/22 09:03:07;;;;;;;0.00;0.00;;;;;;;;;;5051990;28;20059;-89
2022/11/22 09:05:33;;;;;;;0.00;0.00;;;;;;;;;;5028614;28;20217;-88
2022/11/22 09:08:00;;;;;;;0.00;0.00;;;;;;;;;;5043238;28;20038;-88
2022/11/22 09:10:27;;;;;;;0.00;0.00;;;;;;;;;;5023972;28;20045;-90
2022/11/22 09:12:53;;;;;;;0.00;0.00;;;;;;;;;;5022579;28;20045;-92
2022/11/22 09:15:19;;;;;;;0.00;0.00;;;;;;;;;;5022882;28;20028;-93
2022/11/22 09:17:46;;;;;;;0.00;0.00;;;;;;;;;;5017111;28;20832;-90
2022/11/22 09:20:15;;;;;;;0.00;0.00;;;;;;;;;;5023642;28;20033;-90
2022/11/22 09:22:41;;;;;;;0.00;0.00;;;;;;;;;;5025335;28;20617;-91
2022/11/22 09:25:19;;;;;;;0.00;0.00;;;;;;;;;;5019912;28;20072;-91
2022/11/22 09:27:46;;;;;;;0.00;0.00;;;;;;;;;;5018633;28;20967;-91
2022/11/22 09:30:12;;;;;;;0.00;0.00;;;;;;;;;;5025244;28;20036;-90
2022/11/22 09:32:39;;;;;;;0.00;0.00;;;;;;;;;;5026877;28;20025;-88
2022/11/22 09:35:05;;;;;;;0.00;0.00;;;;;;;;;;5027238;28;20025;-84
2022/11/22 09:37:31;;;;;;;0.00;0.00;;;;;;;;;;5028755;28;20041;-84
2022/11/22 09:39:58;;;;;;;0.00;0.00;;;;;;;;;;5028555;28;20044;-84
2022/11/22 09:42:34;;;;;;;0.00;0.00;;;;;;;;;;5028928;28;20025;-82
2022/11/22 09:45:04;;;;;;;0.00;0.00;;;;;;;;;;5026060;28;20032;-82
2022/11/22 09:47:42;;;;;;;0.00;0.00;;;;;;;;;;5027194;28;20512;-80
2022/11/22 09:50:08;;;;;;;0.00;0.00;;;;;;;;;;5020666;28;20509;-79
2022/11/22 09:52:41;;;;;;;0.00;0.00;;;;;;;;;;5030043;28;20068;-79
2022/11/22 09:55:24;;;;;;;0.00;0.00;;;;;;;;;;5029853;28;20075;-79
2022/11/22 09:58:17;;;;;;;0.00;0.00;;;;;;;;;;5024992;28;20033;-79
2022/11/22 10:00:44;;;;;;;0.00;0.00;;;;;;;;;;5013626;28;20052;-79
2022/11/22 10:03:17;;;;;;;0.00;0.00;;;;;;;;;;5023763;28;20029;-80
2022/11/22 10:05:49;;;;;;;0.00;0.00;;;;;;;;;;5024832;28;20135;-80
2022/11/22 10:08:22;;;;;;;0.00;0.00;;;;;;;;;;5028499;28;20143;-80
2022/11/22 10:10:50;;;;;;;0.00;0.00;;;;;;;;;;5041720;28;20205;-80
2022/11/22 10:13:21;;;;;;;0.00;0.00;;;;;;;;;;5042659;28;20044;-80
2022/11/22 10:16:03;;;;;;;0.00;0.00;;;;;;;;;;5044821;28;20108;-81
2022/11/22 10:18:29;;;;;;;0.00;0.00;;;;;;;;;;5041349;28;20032;-80
2022/11/22 10:20:55;;;;;;;0.00;0.00;;;;;;;;;;5043697;28;20032;-81
2022/11/22 10:23:25;;;;;;;0.00;0.00;;;;;;;;;;5053559;28;20107;-83
2022/11/22 10:25:57;;;;;;;0.00;0.00;;;;;;;;;;5051191;28;20025;-82
2022/11/22 10:28:38;;;;;;;0.00;0.00;;;;;;;;;;5049347;28;20032;-82
2022/11/22 10:31:16;;;;;;;0.00;0.00;;;;;;;;;;5047479;28;20386;-82
2022/11/22 10:33:42;;;;;;;0.00;0.00;;;;;;;;;;5047888;28;20032;-82
2022/11/22 10:36:32;;;;;;;0.00;0.00;;;;;;;;;;5049115;28;20032;-83
2022/11/22 10:39:06;;;;;;;0.00;0.00;;;;;;;;;;5020903;28;20052;-82
2022/11/22 10:41:38;;;;;;;0.00;0.00;;;;;;;;;;5054337;28;20025;-82
2022/11/22 10:44:14;;;;;;;0.00;0.00;;;;;;;;;;5053374;28;20055;-84
2022/11/22 10:46:46;;;;;;;0.00;0.00;;;;;;;;;;5056771;28;20722;-83
2022/11/22 10:49:20;;;;;;;0.00;0.00;;;;;;;;;;5057543;28;20025;-82
2022/11/22 10:51:59;;;;;;;0.00;0.00;;;;;;;;;;5070974;28;20037;-78
2022/11/22 10:54:25;;;;;;;0.00;0.00;;;;;;;;;;5056843;28;20063;-84
2022/11/22 10:56:54;;;;;;;0.00;0.00;;;;;;;;;;5050208;28;20035;-83
2022/11/22 10:59:33;;;;;;;0.00;0.00;;;;;;;;;;5048578;28;20030;-84
2022/11/22 11:02:15;;;;;;;0.00;0.00;;;;;;;;;;5052178;28;20029;-84
2022/11/22 11:04:42;;;;;;;0.00;0.00;;;;;;;;;;5051133;28;20112;-85
2022/11/22 11:07:14;;;;;;;0.00;0.00;;;;;;;;;;5046243;28;20515;-86
2022/11/22 11:09:46;;;;;;;0.00;0.00;;;;;;;;;;5048150;28;20504;-87
2022/11/22 11:12:32;;;;;;;0.00;0.00;;;;;;;;;;5052725;28;20079;-80
2022/11/22 11:15:07;;;;;;;0.00;0.00;;;;;;;;;;5048936;28;20049;-82
2022/11/22 11:17:37;;;;;;;0.00;0.00;;;;;;;;;;5054781;28;20062;-84
2022/11/22 11:20:10;;;;;;;0.00;0.00;;;;;;;;;;5048939;28;20062;-83
2022/11/22 11:22:37;;;;;;;0.00;0.00;;;;;;;;;;5046799;28;20111;-83
2022/11/22 11:25:22;;;;;;;0.00;0.00;;;;;;;;;;5048411;28;20040;-83
2022/11/22 11:27:48;;;;;;;0.00;0.00;;;;;;;;;;5044371;28;20033;-84
2022/11/22 11:30:15;;;;;;;0.00;0.00;;;;;;;;;;5050272;28;20381;-85
2022/11/22 11:32:52;;;;;;;0.00;0.00;;;;;;;;;;5054372;28;20037;-87
2022/11/22 11:35:19;;;;;;;0.00;0.00;;;;;;;;;;5057032;28;20289;-80
2022/11/22 11:37:46;;;;;;;0.00;0.00;;;;;;;;;;5052318;28;20276;-84
2022/11/22 11:40:31;;;;;;;0.00;0.00;;;;;;;;;;5055700;28;20075;-86
2022/11/22 11:43:19;;;;;;;0.00;0.00;;;;;;;;;;5049656;28;20219;-86
2022/11/22 11:45:46;;;;;;;0.00;0.00;;;;;;;;;;5040027;28;20040;-85
2022/11/22 11:48:31;;;;;;;0.00;0.00;;;;;;;;;;5041964;28;20486;-83
2022/11/22 11:51:16;;;;;;;0.00;0.00;;;;;;;;;;5044385;28;20029;-84
2022/11/22 11:53:51;;;;;;;0.00;0.00;;;;;;;;;;5042764;28;20422;-83
2022/11/22 11:56:38;;;;;;;0.00;0.00;;;;;;;;;;5044156;28;20029;-87
2022/11/22 11:59:11;;;;;;;0.00;0.00;;;;;;;;;;5033994;28;20037;-85
2022/11/22 12:01:47;;;;;;;0.00;0.00;;;;;;;;;;5046234;28;20021;-83
2022/11/22 12:04:21;;;;;;;0.00;0.00;;;;;;;;;;5043616;28;20029;-85
2022/11/22 12:06:54;;;;;;;0.00;0.00;;;;;;;;;;5040388;28;20056;-87
2022/11/22 12:09:27;;;;;;;0.00;0.00;;;;;;;;;;5037772;28;20458;-85
2022/11/22 12:11:55;;;;;;;0.00;0.00;;;;;;;;;;5034454;28;20029;-85
2022/11/22 12:14:24;;;;;;;0.00;0.00;;;;;;;;;;5042275;28;20117;-85
2022/11/22 12:16:54;;;;;;;0.00;0.00;;;;;;;;;;5043648;28;20037;-86
2022/11/22 12:19:26;;;;;;;0.00;0.00;;;;;;;;;;5046281;28;20489;-88
2022/11/22 12:22:11;;;;;;;0.00;0.00;;;;;;;;;;5046984;28;20062;-85
2022/11/22 12:24:42;;;;;;;0.00;0.00;;;;;;;;;;5045508;28;20342;-85
2022/11/22 12:27:10;;;;;;;0.00;0.00;;;;;;;;;;5055946;28;20040;-85
2022/11/22 12:29:38;;;;;;;0.00;0.00;;;;;;;;;;5045411;28;20036;-86
2022/11/22 12:32:07;;;;;;;0.00;0.00;;;;;;;;;;5047156;28;20032;-81
2022/11/22 12:34:36;;;;;;;0.00;0.00;;;;;;;;;;5049843;28;20145;-82
2022/11/22 12:37:12;;;;;;;0.00;0.00;;;;;;;;;;5053516;28;20028;-82
2022/11/22 12:39:38;;;;;;;0.00;0.00;;;;;;;;;;5053850;28;20032;-82
2022/11/22 12:42:05;;;;;;;0.00;0.00;;;;;;;;;;5050047;28;20057;-82
2022/11/22 12:44:37;;;;;;;0.00;0.00;;;;;;;;;;5058801;28;20110;-81
2022/11/22 12:47:08;;;;;;;0.00;0.00;;;;;;;;;;5048924;28;20028;-86
2022/11/22 12:49:43;;;;;;;0.00;0.00;;;;;;;;;;5054330;28;20454;-83
2022/11/22 12:52:15;;;;;;;0.00;0.00;;;;;;;;;;5051106;28;20043;-83
2022/11/22 12:54:57;;;;;;;0.00;0.00;;;;;;;;;;5051445;28;20029;-85
2022/11/22 12:57:28;;;;;;;0.00;0.00;;;;;;;;;;5054346;28;20146;-83
2022/11/22 12:59:58;;;;;;;0.00;0.00;;;;;;;;;;5054416;28;20091;-81
2022/11/22 13:02:27;;;;;;;0.00;0.00;;;;;;;;;;5067122;28;20120;-88
2022/11/22 13:05:03;;;;;;;0.00;0.00;;;;;;;;;;5064064;28;20060;-85
2022/11/22 13:07:35;;;;;;;0.00;0.00;;;;;;;;;;5054352;28;20131;-86
2022/11/22 13:10:05;;;;;;;0.00;0.00;;;;;;;;;;5052145;28;20160;-88
2022/11/22 13:12:34;;;;;;;0.00;0.00;;;;;;;;;;5052267;28;20039;-82
2022/11/22 13:15:01;;;;;;;0.00;0.00;;;;;;;;;;5055213;28;20029;-86
2022/11/22 13:17:32;;;;;;;0.00;0.00;;;;;;;;;;5063489;28;20089;-83
2022/11/22 13:20:05;;;;;;;0.00;0.00;;;;;;;;;;5060450;28;20017;-85
2022/11/22 13:22:35;;;;;;;0.00;0.00;;;;;;;;;;5063482;28;20021;-81
2022/11/22 13:25:20;;;;;;;0.00;0.00;;;;;;;;;;5052572;28;20024;-85
2022/11/22 13:27:49;;;;;;;0.00;0.00;;;;;;;;;;5059123;28;20438;-87
2022/11/22 13:30:18;;;;;;;0.00;0.00;;;;;;;;;;5056975;28;20119;-86
2022/11/22 13:32:47;;;;;;;0.00;0.00;;;;;;;;;;5054804;28;20045;-84
2022/11/22 13:35:13;;;;;;;0.00;0.00;;;;;;;;;;5052870;28;20121;-81
2022/11/22 13:37:44;;;;;;;0.00;0.00;;;;;;;;;;5058536;28;20029;-86
2022/11/22 13:40:16;;;;;;;0.00;0.00;;;;;;;;;;5054429;28;20057;-84
2022/11/22 13:42:43;;;;;;;0.00;0.00;;;;;;;;;;5061845;28;20037;-89
2022/11/22 13:45:09;;;;;;;0.00;0.00;;;;;;;;;;5068159;28;20021;-86
2022/11/22 13:47:40;;;;;;;0.00;0.00;;;;;;;;;;5060762;28;20087;-87
2022/11/22 13:50:38;;;;;;;0.00;0.00;;;;;;;;;;5059762;28;20036;-86
2022/11/22 13:53:23;;;;;;;0.00;0.00;;;;;;;;;;5030557;28;20127;-89
2022/11/22 13:55:50;;;;;;;0.00;0.00;;;;;;;;;;5061852;28;20028;-82
2022/11/22 13:58:23;;;;;;;0.00;0.00;;;;;;;;;;5056119;28;20470;-86
2022/11/22 14:00:58;;;;;;;0.00;0.00;;;;;;;;;;5056666;28;20633;-89
2022/11/22 14:03:25;;;;;;;0.00;0.00;;;;;;;;;;5063141;28;20028;-88
2022/11/22 14:05:52;;;;;;;0.00;0.00;;;;;;;;;;5056053;28;20070;-82
2022/11/22 14:08:45;;;;;;;0.00;0.00;;;;;;;;;;5046961;28;20044;-84
2022/11/22 14:11:30;;;;;;;0.00;0.00;;;;;;;;;;5036444;28;20063;-85
2022/11/22 14:14:04;;;;;;;0.00;0.00;;;;;;;;;;5055306;28;20033;-86
2022/11/22 14:16:47;;;;;;;0.00;0.00;;;;;;;;;;5034709;28;20033;-84
2022/11/22 14:19:45;;;;;;;0.00;0.00;;;;;;;;;;5058438;28;20048;-86
2022/11/22 14:22:23;;;;;;;0.00;0.00;;;;;;;;;;5011049;28;20452;-83
2022/11/22 14:25:05;;;;;;;0.00;0.00;;;;;;;;;;5049824;28;20112;-85
2022/11/22 14:27:37;;;;;;;0.00;0.00;;;;;;;;;;5052029;28;20462;-85
2022/11/22 14:30:06;;;;;;;0.00;0.00;;;;;;;;;;5053203;28;20021;-85
2022/11/22 14:32:59;;;;;;;0.00;0.00;;;;;;;;;;5053777;28;20108;-86
2022/11/22 14:35:30;;;;;;;0.00;0.00;;;;;;;;;;5050200;28;20055;-82
2022/11/22 14:38:02;;;;;;;0.00;0.00;;;;;;;;;;5053573;28;20040;-84
2022/11/22 14:40:28;;;;;;;0.00;0.00;;;;;;;;;;5052946;28;20048;-86
2022/11/22 14:42:57;;;;;;;0.00;0.00;;;;;;;;;;5054251;28;20112;-86
2022/11/22 14:45:38;;;;;;;0.00;0.00;;;;;;;;;;5053080;28;20024;-81
2022/11/22 14:48:19;;;;;;;0.00;0.00;;;;;;;;;;5051722;28;20028;-79
2022/11/22 14:50:54;;;;;;;0.00;0.00;;;;;;;;;;5049321;28;20029;-80
2022/11/22 14:53:35;;;;;;;0.00;0.00;;;;;;;;;;5052289;28;20074;-83
2022/11/22 14:56:07;;;;;;;0.00;0.00;;;;;;;;;;5051301;28;20507;-84
2022/11/22 14:58:36;;;;;;;0.00;0.00;;;;;;;;;;5050418;28;20060;-81
2022/11/22 15:01:10;;;;;;;0.00;0.00;;;;;;;;;;5065080;28;20054;-77
2022/11/22 15:03:55;;;;;;;0.00;0.00;;;;;;;;;;5046052;28;20021;-77
2022/11/22 15:06:22;;;;;;;0.00;0.00;;;;;;;;;;5045984;28;20432;-78
2022/11/22 15:08:57;;;;;;;0.00;0.00;;;;;;;;;;5049069;28;20029;-79
2022/11/22 15:11:42;;;;;;;0.00;0.00;;;;;;;;;;5049957;28;20060;-78
2022/11/22 15:14:14;;;;;;;0.00;0.00;;;;;;;;;;5050344;28;20485;-77
2022/11/22 15:16:43;;;;;;;0.00;0.00;;;;;;;;;;5049214;28;20549;-80
2022/11/22 15:19:28;;;;;;;0.00;0.00;;;;;;;;;;5055547;28;20060;-81